BLACK BUTTE (BLB)

Elevation: 426' · STONY CR basin · Operator: US Army Corps of Engineers

Provisional data, subject to change.
Query executed Tuesday at 0:12:25   clock

Select a sensor type for a plot of data.
Note: Reservoir Flows are daily averages.

Earlier

Date RES ELE    STORAGE    RES CHG    TOC STO    ABV TOC    OUTFLOW    INFLOW    PPT INC    TEMP MN    TEMP MX    EVP PAN   
 FEET   AF   AF   AF   AF   CFS   CFS   INCHES   DEG F   DEG F   INCHES  
07/05/2015 457.18 74476 32 136200 -61724 183 233 0.00 20 35 0.33
07/06/2015 457.15 74379 -97 136200 -61821 212 191 0.00 18 33 0.26
07/07/2015 457.02 73963 -416 136200 -62237 278 97 0.00 17 33 0.28
07/08/2015 456.86 73452 -511 136200 -62748 282 50 0.00 17 31 0.25
07/09/2015 456.68 72880 -572 136200 -63320 293 17 0.00 17 24 0.12
07/10/2015 456.48 72247 -633 136200 -63953 274 -23 0.09 16 27 0.21
07/11/2015 456.30 71681 -566 136200 -64519 273 14 0.10 16 31 0.26
07/12/2015 456.14 71180 -501 136200 -65020 237 12 0.07 18 31 0.27
07/13/2015 455.99 70712 -468 136200 -65488 209 1 0.00 17 33 0.28
07/14/2015 455.86 70308 -404 136200 -65892 165 -9 0.00 19 34 0.30
07/15/2015 455.74 69936 -372 136200 -66264 152 -6 0.13 18 36 0.30
07/16/2015 455.60 69504 -432 136200 -66696 160 -25 0.04 22 38 0.34
07/17/2015 455.45 69043 -461 136200 -67157 197 -3 0.00 20 38 0.32
07/18/2015 455.27 68493 -550 136200 -67707 248 0 0.00 19 35 0.30
07/19/2015 455.06 67854 -639 136200 -68346 270 -22 0.00 18 37 0.31
07/20/2015 454.88 67309 -545 136200 -68891 246 1 0.00 24 42 0.30
07/21/2015 454.67 66678 -631 136200 -69522 282 -4 0.00 23 36 0.34
07/22/2015 454.46 66050 -628 136200 -70150 276 -11 0.00 18 33 0.31
07/23/2015 454.24 65397 -653 136200 -70803 299 -6 0.00 14 29 0.26
07/24/2015 454.04 64806 -591 136200 -71394 248 -23 0.00 14 32 0.28
07/25/2015 453.87 64308 -498 136200 -71892 220 -3 0.00 16 34 0.29
07/26/2015 453.73 63899 -409 136200 -72301 152 -27 0.00 17 33 0.29
07/27/2015 453.57 63434 -465 136200 -72766 162 -41 0.03 23 37 0.34
07/28/2015 453.46 63116 -318 136200 -73084 134 9 0.00 27 42 0.37
07/29/2015 453.31 62683 -433 136200 -73517 190 3 0.03 27 43 0.34
07/30/2015 453.11 62110 -- 136200 -74090 256 -6 0.00 23 42 0.29
07/31/2015 452.91 61540 -570 136200 -74660 283 16 0.00 22 37 0.21
08/01/2015 452.70 60946 -594 136200 -75254 253 -20 0.00 18 34 0.27
08/02/2015 452.51 60412 -534 136200 -75788 261 14 0.00 20 34 0.23
08/03/2015 -- -- -- -- -- -- -- -- -- -- --
08/04/2015 -- -- -- -- -- -- -- -- -- -- --

Later | Latest

Warning! This data is preliminary and subject to revision.

Show BLB Map | Plot BLB Data | 1 Month BLB Data | Real-Time BLB Data | BLB Info